Fishtrap, Kentucky
Current Conditions -  °F | °C
As of 5:55 AM on Friday 31 Oct 2014 (Local Time) from KPBX Reporting Station
Overcast Overcast  
Wind Chill: 37°   Ceiling: 12000
Heat Index: 37°   Visibility: 10mi
Dew Point: 35°   Wind: 0mph
Humidity: 91%   Direction: NA
Pressure: 29.97"   Gusts: NA
Location:  37.5004°N, 82.4242°W
Report Text: KPBX 310955Z AUTO 00000KT 10SM OVC120 03/02 A2997 RMK AO2 T00300017
Loading
Personal Weather Stations






























Interactive Weather Map
Tropical Storm Tracking
New forecast layout! Learn more

10-Day Weather Forecast

Advertisements
Track Severe Weather on mobile